createdAt,value
2019-03-26T00:00:08.385Z,5.17
2019-03-26T00:02:41.473Z,4.55
2019-03-26T00:05:13.131Z,6.12
2019-03-26T00:07:44.584Z,5.53
2019-03-26T00:10:16.247Z,4.72
2019-03-26T00:13:42.958Z,4.47
2019-03-26T00:16:23.215Z,5.47
2019-03-26T00:18:54.866Z,4.62
2019-03-26T00:21:26.533Z,5.12
2019-03-26T00:23:58.332Z,5.83
2019-03-26T00:26:29.951Z,4.67
2019-03-26T00:29:01.703Z,4.60
2019-03-26T00:31:33.062Z,4.67
2019-03-26T00:34:18.345Z,4.90
2019-03-26T00:36:38.012Z,4.95
2019-03-26T00:39:09.722Z,5.97
2019-03-26T00:41:41.433Z,5.12
2019-03-26T00:44:12.980Z,5.22
2019-03-26T00:46:44.846Z,5.25
2019-03-26T00:49:16.603Z,5.70
2019-03-26T00:51:48.157Z,5.62
2019-03-26T00:54:19.924Z,6.22
2019-03-26T00:56:51.373Z,5.80
2019-03-26T00:59:23.338Z,5.92
2019-03-26T01:01:54.898Z,6.03
2019-03-26T01:04:32.617Z,4.85
2019-03-26T01:06:59.741Z,5.47
2019-03-26T01:09:31.297Z,5.72
2019-03-26T01:12:03.059Z,5.40
2019-03-26T01:14:34.919Z,5.62
2019-03-26T01:17:06.480Z,5.40
2019-03-26T01:19:38.238Z,5.37
2019-03-26T01:22:09.707Z,5.37
2019-03-26T01:24:41.848Z,5.33
2019-03-26T01:27:13.504Z,5.35
2019-03-26T01:29:45.267Z,6.00
2019-03-26T01:32:17.228Z,4.67
2019-03-26T01:34:48.991Z,5.30
2019-03-26T01:37:20.554Z,5.40
2019-03-26T01:39:52.309Z,4.95
2019-03-26T01:42:24.065Z,6.08
2019-03-26T01:44:55.524Z,5.65
2019-03-26T01:47:57.757Z,5.45
2019-03-26T01:50:30.138Z,5.45
2019-03-26T01:53:01.697Z,5.85
2019-03-26T01:55:33.365Z,5.92
2019-03-26T01:58:05.108Z,5.67
2019-03-26T02:00:36.819Z,5.92
2019-03-26T02:03:08.430Z,6.05
2019-03-26T02:05:40.202Z,6.25
2019-03-26T02:08:11.760Z,6.37
2019-03-26T02:10:43.311Z,6.67
2019-03-26T02:13:14.955Z,6.53
2019-03-26T02:15:46.730Z,7.15
2019-03-26T02:18:18.491Z,6.22
2019-03-26T02:20:50.042Z,6.78
2019-03-26T02:23:21.905Z,5.90
2019-03-26T02:25:53.293Z,5.70
2019-03-26T02:28:24.914Z,6.35
2019-03-26T02:30:56.383Z,5.75
2019-03-26T02:33:28.145Z,6.33
2019-03-26T02:35:59.991Z,6.53
2019-03-26T02:38:31.601Z,6.17
2019-03-26T02:41:03.213Z,6.37
2019-03-26T02:43:34.767Z,6.60
2019-03-26T02:46:07.246Z,6.83
2019-03-26T02:48:38.882Z,6.35
2019-03-26T02:51:10.540Z,6.37
2019-03-26T02:53:42.321Z,7.15
2019-03-26T02:56:15.085Z,7.00
2019-03-26T02:58:46.753Z,6.47
2019-03-26T03:01:18.402Z,6.78
2019-03-26T03:03:50.057Z,6.53
2019-03-26T03:06:21.717Z,6.03
2019-03-26T03:08:53.372Z,6.55
2019-03-26T03:11:25.154Z,7.22
2019-03-26T03:13:56.911Z,6.55
2019-03-26T03:16:28.380Z,7.10
2019-03-26T03:19:00.019Z,7.90
2019-03-26T03:21:31.585Z,7.75
2019-03-26T03:24:03.369Z,7.35
2019-03-26T03:26:35.103Z,7.08
2019-03-26T03:29:06.853Z,7.75
2019-03-26T03:31:38.562Z,7.53
2019-03-26T03:34:10.087Z,7.92
2019-03-26T03:36:41.731Z,7.92
2019-03-26T03:39:13.583Z,8.00
2019-03-26T03:41:45.246Z,7.05
2019-03-26T03:44:16.627Z,7.87
2019-03-26T03:46:48.353Z,6.80
2019-03-26T03:49:21.436Z,8.43
2019-03-26T03:51:53.054Z,7.20
2019-03-26T03:54:24.767Z,7.45
2019-03-26T03:56:57.032Z,7.42
2019-03-26T03:59:28.808Z,7.30
2019-03-26T04:02:00.444Z,7.58
2019-03-26T04:04:32.101Z,7.60
2019-03-26T04:07:03.666Z,7.58
2019-03-26T04:09:35.324Z,8.00
2019-03-26T04:12:07.082Z,8.30
2019-03-26T04:14:38.840Z,7.75
2019-03-26T04:17:10.321Z,7.90
2019-03-26T04:19:42.061Z,7.87
2019-03-26T04:22:13.611Z,7.87
2019-03-26T04:24:45.309Z,7.87
2019-03-26T04:27:17.028Z,7.80
2019-03-26T04:29:48.787Z,7.78
2019-03-26T04:32:20.342Z,7.87
2019-03-26T04:34:51.995Z,7.62
2019-03-26T04:37:23.657Z,7.70
2019-03-26T04:39:55.322Z,8.00
2019-03-26T04:42:27.413Z,8.30
2019-03-26T04:44:58.929Z,7.92
2019-03-26T04:47:30.596Z,7.28
2019-03-26T04:50:02.252Z,7.00
2019-03-26T04:52:34.226Z,7.47
2019-03-26T04:55:06.037Z,7.95
2019-03-26T04:57:37.358Z,7.78
2019-03-26T05:00:09.092Z,7.47
2019-03-26T05:02:40.964Z,7.42
2019-03-26T05:05:12.687Z,7.28
2019-03-26T05:07:44.102Z,7.47
2019-03-26T05:10:15.720Z,7.97
2019-03-26T05:12:47.284Z,8.40
2019-03-26T05:15:18.839Z,8.75
2019-03-26T05:17:50.595Z,8.10
2019-03-26T05:20:22.150Z,8.10
2019-03-26T05:22:54.112Z,7.83
2019-03-26T05:25:25.571Z,7.83
2019-03-26T05:27:58.705Z,8.20
2019-03-26T05:30:33.008Z,10.70
2019-03-26T05:33:03.609Z,12.58
2019-03-26T05:35:35.065Z,11.63
2019-03-26T05:38:06.721Z,13.78
2019-03-26T05:40:39.508Z,14.28
2019-03-26T05:43:11.166Z,18.77
2019-03-26T05:46:31.550Z,16.27
2019-03-26T05:49:03.124Z,15.60
2019-03-26T05:51:35.668Z,17.40
2019-03-26T05:54:07.021Z,16.57
2019-03-26T05:56:38.408Z,18.12
2019-03-26T05:59:10.029Z,17.62
2019-03-26T06:01:42.565Z,18.12
2019-03-26T06:04:14.370Z,19.42
2019-03-26T06:06:45.954Z,18.62
2019-03-26T06:09:17.476Z,18.52
2019-03-26T06:11:49.139Z,18.37
2019-03-26T06:14:20.896Z,18.52
2019-03-26T06:16:52.654Z,21.07
2019-03-26T06:19:24.207Z,21.12
2019-03-26T06:21:55.763Z,21.77
2019-03-26T06:24:27.631Z,21.35
2019-03-26T06:26:59.496Z,21.35
2019-03-26T06:29:31.968Z,27.07
2019-03-26T06:32:03.510Z,26.27
2019-03-26T06:34:35.183Z,25.55
2019-03-26T06:37:17.392Z,24.87
2019-03-26T06:39:39.933Z,26.33
2019-03-26T06:42:11.381Z,27.15
2019-03-26T06:44:43.131Z,26.23
2019-03-26T06:47:14.903Z,27.62
2019-03-26T06:49:46.454Z,27.52
2019-03-26T06:52:17.935Z,29.75
2019-03-26T06:54:51.687Z,29.02
2019-03-26T06:57:35.055Z,33.05
2019-03-26T06:59:55.965Z,31.80
2019-03-26T07:02:27.712Z,36.23
2019-03-26T07:04:59.273Z,37.60
2019-03-26T07:07:32.060Z,35.70
2019-03-26T07:10:07.193Z,36.75
2019-03-26T07:12:38.643Z,35.85
2019-03-26T07:15:10.202Z,38.35
2019-03-26T07:17:41.657Z,36.93
2019-03-26T07:20:13.205Z,41.45
2019-03-26T07:22:44.799Z,38.73
2019-03-26T07:25:17.342Z,41.75
2019-03-26T07:27:48.781Z,40.75
2019-03-26T07:30:23.570Z,40.33
2019-03-26T07:32:55.386Z,36.95
2019-03-26T07:35:27.043Z,36.80
2019-03-26T07:37:58.701Z,39.15
2019-03-26T07:40:30.474Z,39.40
2019-03-26T07:43:02.231Z,38.35
2019-03-26T07:45:34.083Z,37.08
2019-03-26T07:48:05.848Z,31.15
2019-03-26T07:50:37.504Z,32.08
2019-03-26T07:53:09.261Z,28.12
2019-03-26T07:55:43.720Z,24.32
2019-03-26T07:58:14.321Z,24.30
2019-03-26T08:00:45.800Z,22.52
2019-03-26T08:03:17.315Z,27.77
2019-03-26T08:05:48.666Z,24.85
2019-03-26T08:08:19.980Z,24.80
2019-03-26T08:10:51.299Z,25.55
2019-03-26T08:13:22.652Z,25.35
2019-03-26T08:15:53.953Z,23.32
2019-03-26T08:18:25.535Z,23.35
2019-03-26T08:20:57.654Z,24.07
2019-03-26T08:23:29.189Z,25.85
2019-03-26T08:26:00.814Z,24.18
2019-03-26T08:28:32.515Z,24.52
2019-03-26T08:31:04.129Z,26.17
2019-03-26T08:33:35.901Z,25.70
2019-03-26T08:36:07.653Z,26.17
2019-03-26T08:38:39.206Z,27.80
2019-03-26T08:41:10.976Z,27.45
2019-03-26T08:43:42.524Z,26.73
2019-03-26T08:46:14.171Z,27.40
2019-03-26T08:48:45.881Z,27.45
2019-03-26T08:51:17.598Z,25.52
2019-03-26T08:53:49.465Z,23.42
2019-03-26T08:56:21.018Z,23.60
2019-03-26T08:58:52.674Z,22.65
2019-03-26T09:01:24.538Z,23.12
2019-03-26T09:06:28.776Z,25.45
2019-03-26T09:09:00.535Z,27.87
2019-03-26T09:11:32.904Z,25.70
2019-03-26T09:14:05.699Z,27.37
2019-03-26T09:16:37.454Z,27.60
2019-03-26T09:19:09.216Z,27.13
2019-03-26T09:21:40.726Z,26.90
2019-03-26T09:24:12.425Z,26.97
2019-03-26T09:26:44.005Z,27.90
2019-03-26T09:29:15.640Z,27.00
2019-03-26T09:31:47.301Z,29.85
2019-03-26T09:34:18.871Z,27.00
2019-03-26T09:36:50.641Z,26.52
2019-03-26T09:39:22.372Z,28.98
2019-03-26T09:41:53.784Z,29.50
2019-03-26T09:44:25.484Z,28.87
2019-03-26T09:46:57.244Z,31.70
2019-03-26T09:49:29.010Z,29.45
2019-03-26T09:52:00.804Z,29.07
2019-03-26T09:54:32.431Z,28.87
2019-03-26T09:57:03.995Z,28.47
2019-03-26T09:59:35.747Z,26.23
2019-03-26T10:02:07.391Z,22.73
2019-03-26T10:04:39.160Z,25.70
2019-03-26T10:07:20.872Z,24.18
2019-03-26T10:09:43.804Z,25.77
2019-03-26T10:12:15.461Z,27.67
2019-03-26T10:14:47.120Z,28.30
2019-03-26T10:17:18.884Z,28.60
2019-03-26T10:19:50.437Z,24.98
2019-03-26T10:22:22.091Z,23.85
2019-03-26T10:24:53.749Z,22.62
2019-03-26T10:27:25.472Z,24.35
2019-03-26T10:29:57.197Z,25.40
2019-03-26T10:32:28.822Z,28.12
2019-03-26T10:35:00.363Z,27.70
2019-03-26T10:37:32.144Z,27.17
2019-03-26T10:40:04.634Z,26.97
2019-03-26T10:42:36.075Z,28.38
2019-03-26T10:45:07.746Z,26.07
2019-03-26T10:47:39.390Z,30.35
2019-03-26T10:50:10.852Z,34.73
2019-03-26T10:52:45.257Z,30.40
2019-03-26T10:55:16.814Z,30.68
2019-03-26T10:57:48.615Z,35.58
2019-03-26T11:00:20.758Z,32.50
2019-03-26T11:02:54.112Z,26.70
2019-03-26T11:05:25.258Z,26.30
2019-03-26T11:07:57.052Z,28.57
2019-03-26T11:10:28.706Z,32.90
2019-03-26T11:13:00.367Z,29.80
2019-03-26T11:15:32.123Z,31.93
2019-03-26T11:18:03.790Z,34.85
2019-03-26T11:20:35.355Z,35.00
2019-03-26T11:23:06.996Z,34.27
2019-03-26T11:25:38.659Z,28.70
2019-03-26T11:28:10.215Z,28.75
2019-03-26T11:30:41.679Z,29.87
2019-03-26T11:33:13.531Z,30.25
2019-03-26T11:35:44.979Z,30.43
2019-03-26T11:38:18.516Z,32.05
2019-03-26T11:40:49.855Z,31.10
2019-03-26T11:43:22.191Z,32.20
2019-03-26T11:45:53.866Z,29.23
2019-03-26T11:48:25.418Z,28.80
2019-03-26T11:50:56.974Z,27.85
2019-03-26T11:53:28.732Z,25.43
2019-03-26T11:56:00.058Z,26.60
2019-03-26T11:58:31.840Z,27.27
2019-03-26T12:01:03.653Z,24.98
2019-03-26T12:03:35.056Z,32.73
2019-03-26T12:06:06.851Z,31.50
2019-03-26T12:08:38.679Z,23.20
2019-03-26T12:11:10.341Z,24.35
2019-03-26T12:13:42.190Z,23.55
2019-03-26T12:16:14.556Z,20.80
2019-03-26T12:18:46.234Z,18.48
2019-03-26T12:21:17.994Z,17.23
2019-03-26T12:23:49.856Z,16.93
2019-03-26T12:26:21.408Z,18.35
2019-03-26T12:28:53.110Z,18.25
2019-03-26T12:31:24.731Z,17.98
2019-03-26T12:33:56.317Z,20.65
2019-03-26T12:36:39.352Z,18.48
2019-03-26T12:39:00.928Z,16.90
2019-03-26T12:41:34.334Z,17.07
2019-03-26T12:44:05.982Z,18.50
2019-03-26T12:46:38.869Z,18.75
2019-03-26T12:49:10.432Z,21.82
2019-03-26T12:51:42.183Z,14.60
2019-03-26T12:54:13.745Z,15.38
2019-03-26T12:56:45.503Z,18.30
2019-03-26T12:59:18.178Z,17.90
2019-03-26T13:01:50.042Z,18.35
2019-03-26T13:04:21.499Z,19.20
2019-03-26T13:06:53.262Z,21.80
2019-03-26T13:09:24.924Z,18.90
2019-03-26T13:11:56.578Z,20.08
2019-03-26T13:14:33.963Z,17.37
2019-03-26T13:17:05.214Z,21.82
2019-03-26T13:19:36.283Z,19.77
2019-03-26T13:22:07.709Z,18.45
2019-03-26T13:24:39.364Z,20.55
2019-03-26T13:27:10.423Z,20.27
2019-03-26T13:29:41.860Z,20.65
2019-03-26T13:32:13.326Z,20.02
2019-03-26T13:34:44.681Z,20.23
2019-03-26T13:37:16.116Z,19.25
2019-03-26T13:39:47.575Z,20.05
2019-03-26T13:42:18.922Z,20.02
2019-03-26T13:44:50.168Z,21.27
2019-03-26T13:47:22.650Z,19.35
2019-03-26T13:49:53.901Z,21.87
2019-03-26T13:52:25.135Z,23.80
2019-03-26T13:54:57.520Z,22.15
2019-03-26T13:57:28.972Z,20.57
2019-03-26T14:00:00.396Z,20.35
2019-03-26T14:02:31.881Z,20.08
2019-03-26T14:05:04.155Z,20.40
2019-03-26T14:07:35.293Z,20.05
2019-03-26T14:10:06.643Z,19.90
2019-03-26T14:12:38.101Z,20.90
2019-03-26T14:15:10.398Z,21.23
2019-03-26T14:17:41.823Z,22.50
2019-03-26T14:20:13.385Z,22.42
2019-03-26T14:22:44.528Z,26.05
2019-03-26T14:25:15.778Z,30.20
2019-03-26T14:27:47.135Z,25.43
2019-03-26T14:30:27.519Z,20.52
2019-03-26T14:32:59.020Z,19.45
2019-03-26T14:35:30.288Z,21.85
2019-03-26T14:38:01.740Z,23.75
2019-03-26T14:40:33.100Z,20.45
2019-03-26T14:43:04.359Z,21.35
2019-03-26T14:45:36.014Z,22.22
2019-03-26T14:48:08.578Z,24.70
2019-03-26T14:50:40.137Z,21.20
2019-03-26T14:53:11.378Z,21.80
2019-03-26T14:55:42.730Z,22.35
2019-03-26T14:58:14.078Z,19.92
2019-03-26T15:00:45.534Z,20.23
2019-03-26T15:03:16.990Z,23.32
2019-03-26T15:05:48.437Z,23.70
2019-03-26T15:08:19.897Z,24.47
2019-03-26T15:10:51.345Z,23.70
2019-03-26T15:13:22.512Z,24.10
2019-03-26T15:15:53.843Z,23.62
2019-03-26T15:18:25.501Z,23.80
2019-03-26T15:20:56.782Z,23.02
2019-03-26T15:23:28.103Z,25.55
2019-03-26T15:25:59.451Z,26.48
2019-03-26T15:28:30.833Z,26.80
2019-03-26T15:31:02.318Z,28.55
2019-03-26T15:33:34.047Z,30.60
2019-03-26T15:36:05.092Z,30.37
2019-03-26T15:38:36.409Z,37.40
2019-03-26T15:41:20.992Z,24.85
2019-03-26T15:43:42.183Z,21.82
2019-03-26T15:46:13.440Z,20.92
2019-03-26T15:48:44.984Z,22.80
2019-03-26T15:51:16.443Z,20.27
2019-03-26T15:53:47.892Z,22.40
2019-03-26T15:56:19.245Z,22.17
2019-03-26T15:58:50.693Z,26.07
2019-03-26T16:01:24.355Z,22.20
2019-03-26T16:03:55.240Z,25.88
2019-03-26T16:06:26.474Z,23.40
2019-03-26T16:08:57.940Z,23.90
2019-03-26T16:11:35.679Z,23.83
2019-03-26T16:14:02.089Z,24.72
2019-03-26T16:16:33.429Z,22.00
2019-03-26T16:19:04.882Z,26.37
2019-03-26T16:21:36.267Z,26.50
2019-03-26T16:24:07.682Z,23.47
2019-03-26T16:26:39.137Z,25.92
2019-03-26T16:29:10.566Z,31.17
2019-03-26T16:31:42.044Z,29.67
2019-03-26T16:34:13.499Z,32.60
2019-03-26T16:36:58.816Z,26.55
2019-03-26T16:39:19.368Z,26.97
2019-03-26T16:41:50.937Z,25.48
2019-03-26T16:44:22.698Z,24.37
2019-03-26T16:46:54.252Z,25.72
2019-03-26T16:49:26.007Z,27.05
2019-03-26T16:51:57.466Z,28.73
2019-03-26T16:54:29.016Z,24.75
2019-03-26T16:57:00.387Z,27.10
2019-03-26T16:59:31.920Z,25.95
2019-03-26T17:02:03.373Z,25.40
2019-03-26T17:04:34.862Z,25.23
2019-03-26T17:07:06.381Z,24.85
2019-03-26T17:09:37.939Z,26.25
2019-03-26T17:12:09.084Z,24.90
2019-03-26T17:14:40.436Z,24.75
2019-03-26T17:17:11.524Z,25.10
2019-03-26T17:19:43.045Z,26.87
2019-03-26T17:22:14.486Z,24.75
2019-03-26T17:24:45.734Z,24.65
2019-03-26T17:27:17.290Z,26.65
2019-03-26T17:29:48.639Z,25.60
2019-03-26T17:32:19.994Z,25.37
2019-03-26T17:34:51.249Z,27.30
2019-03-26T17:37:22.689Z,26.87
2019-03-26T17:39:53.837Z,27.62
2019-03-26T17:42:25.091Z,30.52
2019-03-26T17:44:58.383Z,35.70
2019-03-26T17:47:29.742Z,37.17
2019-03-26T17:50:01.087Z,39.67
2019-03-26T17:52:32.538Z,36.45
2019-03-26T17:55:04.832Z,35.08
2019-03-26T17:57:36.270Z,33.90
2019-03-26T18:00:12.730Z,33.08
2019-03-26T18:02:43.977Z,34.00
2019-03-26T18:05:21.368Z,36.10
2019-03-26T18:07:52.721Z,35.35
2019-03-26T18:10:23.972Z,39.30
2019-03-26T18:12:55.320Z,38.00
2019-03-26T18:15:26.484Z,37.95
2019-03-26T18:17:57.917Z,39.55
2019-03-26T18:20:32.787Z,34.40
2019-03-26T18:23:02.463Z,40.73
2019-03-26T18:25:34.118Z,38.85
2019-03-26T18:28:05.466Z,35.00
2019-03-26T18:30:36.851Z,34.10
2019-03-26T18:33:08.282Z,28.62
2019-03-26T18:35:39.529Z,31.20
2019-03-26T18:38:11.076Z,33.10
2019-03-26T18:40:42.346Z,31.48
2019-03-26T18:43:14.900Z,31.27
2019-03-26T18:45:46.266Z,28.38
2019-03-26T18:48:17.604Z,30.57
2019-03-26T18:50:48.855Z,37.38
2019-03-26T18:53:20.408Z,31.48
2019-03-26T18:55:51.661Z,29.52
2019-03-26T18:58:23.210Z,30.17
2019-03-26T19:00:54.766Z,28.65
2019-03-26T19:03:26.034Z,29.45
2019-03-26T19:05:57.468Z,28.92
2019-03-26T19:08:29.040Z,30.48
2019-03-26T19:11:00.588Z,26.70
2019-03-26T19:13:32.044Z,28.45
2019-03-26T19:16:03.185Z,34.98
2019-03-26T19:18:34.643Z,32.08
2019-03-26T19:21:06.078Z,33.60
2019-03-26T19:23:37.745Z,29.18
2019-03-26T19:26:09.007Z,28.15
2019-03-26T19:28:40.267Z,26.85
2019-03-26T19:31:11.806Z,27.05
2019-03-26T19:33:43.160Z,30.00
2019-03-26T19:36:14.605Z,27.70
2019-03-26T19:38:46.882Z,27.20
2019-03-26T19:41:18.330Z,28.17
2019-03-26T19:43:49.983Z,26.12
2019-03-26T19:46:22.673Z,26.93
2019-03-26T19:48:54.105Z,27.52
2019-03-26T19:51:25.677Z,30.70
2019-03-26T19:53:56.923Z,44.90
2019-03-26T19:56:28.480Z,68.15
2019-03-26T19:58:59.940Z,67.05
2019-03-26T20:01:31.181Z,47.62
2019-03-26T20:04:02.839Z,43.25
2019-03-26T20:06:34.381Z,48.25
2019-03-26T20:09:07.179Z,41.90
2019-03-26T20:11:38.426Z,42.93
2019-03-26T20:14:09.678Z,37.35
2019-03-26T20:16:42.287Z,34.67
2019-03-26T20:19:13.600Z,44.25
2019-03-26T20:21:45.172Z,39.10
2019-03-26T20:24:16.624Z,38.53
2019-03-26T20:26:47.965Z,35.08
2019-03-26T20:29:19.314Z,33.28
2019-03-26T20:31:50.496Z,33.18
2019-03-26T20:34:23.452Z,27.55
2019-03-26T20:36:54.542Z,24.70
2019-03-26T20:39:26.966Z,23.35
2019-03-26T20:41:58.318Z,23.52
2019-03-26T20:44:29.878Z,23.12
2019-03-26T20:47:01.340Z,23.25
2019-03-26T20:49:32.771Z,24.80
2019-03-26T20:52:04.334Z,23.35
2019-03-26T20:54:35.995Z,22.80
2019-03-26T20:57:07.445Z,23.55
2019-03-26T20:59:38.899Z,23.55
2019-03-26T21:02:10.358Z,25.00
2019-03-26T21:04:41.914Z,26.23
2019-03-26T21:07:13.257Z,25.00
2019-03-26T21:09:44.627Z,27.90
2019-03-26T21:12:16.070Z,26.57
2019-03-26T21:14:47.412Z,25.35
2019-03-26T21:17:18.970Z,26.05
2019-03-26T21:19:50.161Z,26.97
2019-03-26T21:22:21.566Z,26.68
2019-03-26T21:24:52.817Z,27.35
2019-03-26T21:27:24.165Z,27.58
2019-03-26T21:29:55.722Z,32.17
2019-03-26T21:32:27.074Z,32.70
2019-03-26T21:34:58.530Z,30.35
2019-03-26T21:37:29.983Z,30.77
2019-03-26T21:40:01.332Z,31.57
2019-03-26T21:42:34.114Z,32.98
2019-03-26T21:45:09.255Z,33.30
2019-03-26T21:47:40.361Z,33.85
2019-03-26T21:50:12.618Z,30.75
2019-03-26T21:52:44.022Z,29.85
2019-03-26T21:55:15.363Z,25.37
2019-03-26T21:57:46.830Z,25.25
2019-03-26T22:00:18.176Z,25.85
2019-03-26T22:02:49.720Z,25.90
2019-03-26T22:05:21.079Z,26.60
2019-03-26T22:07:54.773Z,26.57
2019-03-26T22:10:26.347Z,26.12
2019-03-26T22:12:57.903Z,25.50
2019-03-26T22:15:29.165Z,27.05
2019-03-26T22:18:00.603Z,26.40
2019-03-26T22:20:33.067Z,27.93
2019-03-26T22:23:04.679Z,30.08
2019-03-26T22:25:35.982Z,29.15
2019-03-26T22:28:07.226Z,30.10
2019-03-26T22:30:38.684Z,30.75
2019-03-26T22:33:09.865Z,29.27
2019-03-26T22:35:41.188Z,26.33
2019-03-26T22:38:12.525Z,25.05
2019-03-26T22:40:44.085Z,25.52
2019-03-26T22:43:15.304Z,26.35
2019-03-26T22:45:46.788Z,22.85
2019-03-26T22:48:18.227Z,26.23
2019-03-26T22:50:49.579Z,23.85
2019-03-26T22:53:21.152Z,26.75
2019-03-26T22:55:52.504Z,26.68
2019-03-26T22:58:23.676Z,26.33
2019-03-26T23:00:55.305Z,29.65
2019-03-26T23:03:26.763Z,27.05
2019-03-26T23:05:58.110Z,25.30
2019-03-26T23:08:29.654Z,27.30
2019-03-26T23:11:01.124Z,28.42
2019-03-26T23:13:32.467Z,33.33
2019-03-26T23:16:04.029Z,36.70
2019-03-26T23:18:35.362Z,32.67
2019-03-26T23:21:06.725Z,35.80
2019-03-26T23:23:38.075Z,31.80
2019-03-26T23:26:09.324Z,31.70
2019-03-26T23:28:40.775Z,29.50
2019-03-26T23:31:12.339Z,31.80
2019-03-26T23:33:43.886Z,32.50
2019-03-26T23:36:15.236Z,33.40
2019-03-26T23:38:46.484Z,32.88
2019-03-26T23:41:17.938Z,33.23
2019-03-26T23:43:49.292Z,32.40
2019-03-26T23:46:20.538Z,29.82
2019-03-26T23:48:51.792Z,30.85
2019-03-26T23:51:23.125Z,31.42
2019-03-26T23:53:56.230Z,30.27
2019-03-26T23:56:27.578Z,29.30
2019-03-26T23:58:59.028Z,30.02
